Time,TemperatureF,DewpointF,PressureIn,WindDirection,WindDirectionDegrees,WindSpeedMPH,WindSpeedGustMPH,Humidity,HourlyPrecipIn,Conditions,Clouds,dailyrainin,SoftwareType,DateUTC
2013-08-09 00:00:00,61.7,59.4,29.83,SW,233,0.0,0.0,92,0.00,,SKC,0.00,VWS V14.01,2013-08-09 05:00:00,
2013-08-09 00:01:00,61.7,59.4,29.83,SW,233,0.0,0.0,92,0.00,,SKC,0.00,VWS V14.01,2013-08-09 05:01:00,
2013-08-09 00:06:00,61.5,59.2,29.83,SW,233,0.0,0.0,92,0.00,,SKC,0.00,VWS V14.01,2013-08-09 05:06:00,
2013-08-09 00:11:00,61.2,58.9,29.83,SW,233,0.0,0.0,92,0.00,,SKC,0.00,VWS V14.01,2013-08-09 05:11:00,
2013-08-09 00:16:00,61.2,59.2,29.83,SW,233,0.0,0.0,93,0.00,,SKC,0.00,VWS V14.01,2013-08-09 05:16:00,
2013-08-09 00:21:00,61.2,59.2,29.83,SW,233,0.0,0.0,93,0.00,,SKC,0.00,VWS V14.01,2013-08-09 05:21:00,
2013-08-09 00:26:00,61.0,59.0,29.83,SW,233,0.0,0.0,93,0.00,,SKC,0.00,VWS V14.01,2013-08-09 05:26:00,
2013-08-09 00:30:00,62.9,60.2,29.83,SW,233,0.0,0.0,91,0.00,,SKC,0.00,VWS V14.01,2013-08-09 05:30:00,
2013-08-09 00:31:00,61.1,59.1,29.83,SW,233,0.0,0.0,93,0.00,,SKC,0.00,VWS V14.01,2013-08-09 05:31:00,
2013-08-09 00:36:00,61.3,59.6,29.83,SW,233,0.0,0.0,94,0.00,,SKC,0.00,VWS V14.01,2013-08-09 05:36:00,
2013-08-09 00:41:00,61.4,59.7,29.83,SW,233,0.0,0.0,94,0.00,,SKC,0.00,VWS V14.01,2013-08-09 05:41:00,
2013-08-09 00:47:00,61.4,59.7,29.83,SW,233,0.0,0.0,94,0.00,,SKC,0.00,VWS V14.01,2013-08-09 05:47:00,
2013-08-09 00:52:00,61.3,59.6,29.83,SW,233,0.0,0.0,94,0.00,,SKC,0.00,VWS V14.01,2013-08-09 05:52:00,
2013-08-09 00:57:00,61.2,59.5,29.83,SW,233,0.0,0.0,94,0.00,,SKC,0.00,VWS V14.01,2013-08-09 05:57:00,
2013-08-09 01:00:00,61.7,59.4,29.83,SW,233,0.0,0.0,92,0.00,,SKC,0.00,VWS V14.01,2013-08-09 06:00:00,
2013-08-09 01:02:00,61.2,59.5,29.84,SW,233,0.0,0.0,94,0.00,,SKC,0.00,VWS V14.01,2013-08-09 06:02:00,
2013-08-09 01:07:00,61.1,59.4,29.84,SW,233,0.0,0.0,94,0.00,,SKC,0.00,VWS V14.01,2013-08-09 06:07:00,
2013-08-09 01:12:00,60.9,59.2,29.84,SW,233,0.0,0.0,94,0.00,,SKC,0.00,VWS V14.01,2013-08-09 06:12:00,
2013-08-09 01:17:00,60.7,59.0,29.83,SW,233,0.0,0.0,94,0.00,,SKC,0.00,VWS V14.01,2013-08-09 06:17:00,
2013-08-09 01:22:00,60.6,58.9,29.84,SW,233,0.0,0.0,94,0.00,,SKC,0.00,VWS V14.01,2013-08-09 06:22:00,
2013-08-09 01:27:00,60.5,58.8,29.84,SW,233,0.0,0.0,94,0.00,,SKC,0.00,VWS V14.01,2013-08-09 06:27:00,
2013-08-09 01:30:00,61.0,59.0,29.83,SW,233,0.0,0.0,93,0.00,,SKC,0.00,VWS V14.01,2013-08-09 06:30:00,
2013-08-09 01:32:00,60.4,58.7,29.83,SW,233,0.0,0.0,94,0.00,,SKC,0.00,VWS V14.01,2013-08-09 06:32:00,
2013-08-09 01:37:00,60.4,58.7,29.84,SW,233,0.0,0.0,94,0.00,,SKC,0.00,VWS V14.01,2013-08-09 06:37:00,
2013-08-09 01:42:00,60.2,58.5,29.84,SW,233,0.0,0.0,94,0.00,,SKC,0.00,VWS V14.01,2013-08-09 06:42:00,
2013-08-09 01:47:00,60.0,58.3,29.84,SW,233,0.0,0.0,94,0.00,,SKC,0.00,VWS V14.01,2013-08-09 06:47:00,
2013-08-09 01:52:00,60.0,58.3,29.84,SW,233,0.0,0.0,94,0.00,,SKC,0.00,VWS V14.01,2013-08-09 06:52:00,
2013-08-09 01:57:00,59.9,58.2,29.84,SW,233,0.0,0.0,94,0.00,,SKC,0.00,VWS V14.01,2013-08-09 06:57:00,
2013-08-09 02:00:00,61.2,59.5,29.83,SW,233,0.0,0.0,94,0.00,,SKC,0.00,VWS V14.01,2013-08-09 07:00:00,
2013-08-09 02:02:00,59.8,58.1,29.83,SW,233,0.0,0.0,94,0.00,,SKC,0.00,VWS V14.01,2013-08-09 07:02:00,
2013-08-09 02:07:00,59.7,58.0,29.84,SW,233,0.0,0.0,94,0.00,,SKC,0.00,VWS V14.01,2013-08-09 07:07:00,
2013-08-09 02:12:00,59.7,58.0,29.84,SW,233,0.0,0.0,94,0.00,,SKC,0.00,VWS V14.01,2013-08-09 07:12:00,
2013-08-09 02:17:00,59.6,57.9,29.84,SW,233,0.0,0.0,94,0.00,,SKC,0.00,VWS V14.01,2013-08-09 07:17:00,
2013-08-09 02:22:00,59.5,58.1,29.84,SW,233,0.0,0.0,95,0.00,,SKC,0.00,VWS V14.01,2013-08-09 07:22:00,
2013-08-09 02:27:00,59.4,57.7,29.84,SW,233,0.0,0.0,94,0.00,,SKC,0.00,VWS V14.01,2013-08-09 07:27:00,
2013-08-09 02:30:00,60.4,58.7,29.84,SW,233,0.0,0.0,94,0.00,,SKC,0.00,VWS V14.01,2013-08-09 07:30:00,
2013-08-09 02:32:00,59.3,57.6,29.84,SW,233,0.0,0.0,94,0.00,,SKC,0.00,VWS V14.01,2013-08-09 07:32:00,
2013-08-09 02:37:00,59.0,57.3,29.84,SW,233,1.0,1.0,94,0.00,,SKC,0.00,VWS V14.01,2013-08-09 07:37:00,
2013-08-09 02:42:00,59.0,57.6,29.84,SW,233,0.0,1.0,95,0.00,,SKC,0.00,VWS V14.01,2013-08-09 07:42:00,
2013-08-09 02:47:00,59.0,57.6,29.84,SW,233,0.0,1.0,95,0.00,,SKC,0.00,VWS V14.01,2013-08-09 07:47:00,
2013-08-09 02:52:00,59.0,57.6,29.84,SW,233,0.0,1.0,95,0.00,,SKC,0.00,VWS V14.01,2013-08-09 07:52:00,
2013-08-09 02:57:00,59.0,57.6,29.84,SW,233,0.0,1.0,95,0.00,,SKC,0.00,VWS V14.01,2013-08-09 07:57:00,
2013-08-09 03:00:00,59.8,58.1,29.84,SW,233,0.0,0.0,94,0.00,,SKC,0.00,VWS V14.01,2013-08-09 08:00:00,
2013-08-09 03:02:00,59.0,57.6,29.85,SW,233,0.0,0.0,95,0.00,,SKC,0.00,VWS V14.01,2013-08-09 08:02:00,
2013-08-09 03:07:00,58.7,57.0,29.85,SW,233,0.0,0.0,94,0.00,,SKC,0.00,VWS V14.01,2013-08-09 08:07:00,
2013-08-09 03:12:00,58.6,56.9,29.85,SW,233,0.0,0.0,94,0.00,,SKC,0.00,VWS V14.01,2013-08-09 08:12:00,
2013-08-09 03:17:00,58.5,56.8,29.84,SW,233,0.0,5.0,94,0.00,,SKC,0.00,VWS V14.01,2013-08-09 08:17:00,
2013-08-09 03:22:00,58.4,57.0,29.85,SW,233,0.0,5.0,95,0.00,,SKC,0.00,VWS V14.01,2013-08-09 08:22:00,
2013-08-09 03:27:00,58.2,56.8,29.85,SW,233,0.0,5.0,95,0.00,,SKC,0.00,VWS V14.01,2013-08-09 08:27:00,
2013-08-09 03:30:00,59.3,57.6,29.84,SW,233,0.0,0.0,94,0.00,,SKC,0.00,VWS V14.01,2013-08-09 08:30:00,
2013-08-09 03:33:00,58.0,56.3,29.85,SW,233,0.0,0.0,94,0.00,,SKC,0.00,VWS V14.01,2013-08-09 08:33:00,
2013-08-09 03:38:00,57.8,56.1,29.85,SW,233,0.0,0.0,94,0.00,,SKC,0.00,VWS V14.01,2013-08-09 08:38:00,
2013-08-09 03:43:00,57.7,56.3,29.85,SW,233,0.0,1.0,95,0.00,,SKC,0.00,VWS V14.01,2013-08-09 08:43:00,
2013-08-09 03:48:00,57.5,55.8,29.85,SW,233,0.0,1.0,94,0.00,,SKC,0.00,VWS V14.01,2013-08-09 08:48:00,
2013-08-09 03:53:00,57.3,55.6,29.85,SW,233,0.0,1.0,94,0.00,,SKC,0.00,VWS V14.01,2013-08-09 08:53:00,
2013-08-09 03:58:00,57.1,55.4,29.85,SW,233,0.0,1.0,94,0.00,,SKC,0.00,VWS V14.01,2013-08-09 08:58:00,
2013-08-09 04:00:00,59.0,57.6,29.85,SW,233,0.0,1.0,95,0.00,,SKC,0.00,VWS V14.01,2013-08-09 09:00:00,
2013-08-09 04:03:00,56.9,55.2,29.86,SW,233,0.0,0.0,94,0.00,,SKC,0.00,VWS V14.01,2013-08-09 09:03:00,
2013-08-09 04:08:00,56.8,55.1,29.85,SW,233,0.0,0.0,94,0.00,,SKC,0.00,VWS V14.01,2013-08-09 09:08:00,
2013-08-09 04:13:00,56.7,55.0,29.85,SW,233,0.0,0.0,94,0.00,,SKC,0.00,VWS V14.01,2013-08-09 09:13:00,
2013-08-09 04:18:00,56.6,54.9,29.85,SW,233,0.0,0.0,94,0.00,,SKC,0.00,VWS V14.01,2013-08-09 09:18:00,
2013-08-09 04:23:00,56.5,54.8,29.85,SW,233,0.0,0.0,94,0.00,,SKC,0.00,VWS V14.01,2013-08-09 09:23:00,
2013-08-09 04:28:00,56.3,54.6,29.85,SW,233,0.0,0.0,94,0.00,,SKC,0.00,VWS V14.01,2013-08-09 09:28:00,
2013-08-09 04:30:00,58.1,56.4,29.85,SW,233,0.0,5.0,94,0.00,,SKC,0.00,VWS V14.01,2013-08-09 09:30:00,
2013-08-09 04:33:00,56.3,54.6,29.85,SW,233,0.0,0.0,94,0.00,,SKC,0.00,VWS V14.01,2013-08-09 09:33:00,
2013-08-09 04:38:00,56.2,54.5,29.85,SW,233,0.0,0.0,94,0.00,,SKC,0.00,VWS V14.01,2013-08-09 09:38:00,
2013-08-09 04:43:00,56.1,54.4,29.86,SW,233,0.0,0.0,94,0.00,,SKC,0.00,VWS V14.01,2013-08-09 09:43:00,
2013-08-09 04:48:00,56.0,54.3,29.85,SW,233,0.0,0.0,94,0.00,,SKC,0.00,VWS V14.01,2013-08-09 09:48:00,
2013-08-09 04:53:00,56.0,54.3,29.85,SW,233,0.0,0.0,94,0.00,,SKC,0.00,VWS V14.01,2013-08-09 09:53:00,
2013-08-09 04:58:00,55.9,54.2,29.85,SW,233,0.0,0.0,94,0.00,,SKC,0.00,VWS V14.01,2013-08-09 09:58:00,
2013-08-09 05:00:00,57.0,55.3,29.85,SW,233,0.0,1.0,94,0.00,,SKC,0.00,VWS V14.01,2013-08-09 10:00:00,
2013-08-09 05:03:00,55.8,54.4,29.85,SW,233,0.0,0.0,95,0.00,,SKC,0.00,VWS V14.01,2013-08-09 10:03:00,
2013-08-09 05:08:00,55.7,54.3,29.85,SW,233,0.0,0.0,95,0.00,,SKC,0.00,VWS V14.01,2013-08-09 10:08:00,
2013-08-09 05:13:00,55.7,54.3,29.85,SW,233,0.0,0.0,95,0.00,,SKC,0.00,VWS V14.01,2013-08-09 10:13:00,
2013-08-09 05:18:00,55.6,54.2,29.85,SW,233,0.0,0.0,95,0.00,,SKC,0.00,VWS V14.01,2013-08-09 10:18:00,
2013-08-09 05:23:00,55.7,54.3,29.85,SW,233,0.0,0.0,95,0.00,,SKC,0.00,VWS V14.01,2013-08-09 10:23:00,
2013-08-09 05:28:00,55.7,54.3,29.85,SW,233,0.0,0.0,95,0.00,,SKC,0.00,VWS V14.01,2013-08-09 10:28:00,
2013-08-09 05:30:00,56.3,54.6,29.85,SW,233,0.0,0.0,94,0.00,,SKC,0.00,VWS V14.01,2013-08-09 10:30:00,
2013-08-09 05:33:00,55.6,54.2,29.85,SW,233,0.0,0.0,95,0.00,,SKC,0.00,VWS V14.01,2013-08-09 10:33:00,
2013-08-09 05:38:00,55.5,54.1,29.85,SW,233,0.0,0.0,95,0.00,,SKC,0.00,VWS V14.01,2013-08-09 10:38:00,
2013-08-09 05:43:00,55.4,54.0,29.85,SW,233,0.0,0.0,95,0.00,,SKC,0.00,VWS V14.01,2013-08-09 10:43:00,
2013-08-09 05:48:00,55.5,54.1,29.85,SW,233,0.0,0.0,95,0.00,,SKC,0.00,VWS V14.01,2013-08-09 10:48:00,
2013-08-09 05:53:00,55.5,54.1,29.85,SW,233,0.0,0.0,95,0.00,,SKC,0.00,VWS V14.01,2013-08-09 10:53:00,
2013-08-09 05:58:00,55.4,54.0,29.86,SW,233,0.0,0.0,95,0.00,,SKC,0.00,VWS V14.01,2013-08-09 10:58:00,
2013-08-09 06:00:00,55.8,54.4,29.85,SW,233,0.0,0.0,95,0.00,,SKC,0.00,VWS V14.01,2013-08-09 11:00:00,
2013-08-09 06:03:00,55.3,53.9,29.86,SW,233,0.0,0.0,95,0.00,,SKC,0.00,VWS V14.01,2013-08-09 11:03:00,
2013-08-09 06:09:00,55.1,53.7,29.86,WNW,285,0.0,0.0,95,0.00,,SKC,0.00,VWS V14.01,2013-08-09 11:09:00,
2013-08-09 06:14:00,55.1,53.7,29.86,SSE,163,0.0,0.0,95,0.00,,SKC,0.00,VWS V14.01,2013-08-09 11:14:00,
2013-08-09 06:19:00,55.0,53.6,29.86,SSE,163,0.0,0.0,95,0.00,,SKC,0.00,VWS V14.01,2013-08-09 11:19:00,
2013-08-09 06:24:00,54.9,53.5,29.87,SSE,163,0.0,0.0,95,0.00,,SKC,0.00,VWS V14.01,2013-08-09 11:24:00,
2013-08-09 06:29:00,54.9,53.5,29.87,SSE,163,0.0,0.0,95,0.00,,SKC,0.00,VWS V14.01,2013-08-09 11:29:00,
2013-08-09 06:30:00,55.7,54.3,29.85,SW,233,0.0,0.0,95,0.00,,SKC,0.00,VWS V14.01,2013-08-09 11:30:00,
2013-08-09 06:34:00,54.9,53.5,29.87,SSE,163,0.0,0.0,95,0.00,,SKC,0.00,VWS V14.01,2013-08-09 11:34:00,
2013-08-09 06:39:00,55.0,53.6,29.87,SSE,163,0.0,0.0,95,0.00,,SKC,0.00,VWS V14.01,2013-08-09 11:39:00,
2013-08-09 06:44:00,55.2,53.8,29.87,SSE,163,0.0,0.0,95,0.00,,SKC,0.00,VWS V14.01,2013-08-09 11:44:00,
2013-08-09 06:49:00,55.1,53.7,29.87,South,177,0.0,0.0,95,0.00,,SKC,0.00,VWS V14.01,2013-08-09 11:49:00,
2013-08-09 06:54:00,55.2,53.8,29.87,South,177,0.0,0.0,95,0.00,,SKC,0.00,VWS V14.01,2013-08-09 11:54:00,
2013-08-09 06:59:00,55.3,53.9,29.87,South,179,0.0,0.0,95,0.00,,SKC,0.00,VWS V14.01,2013-08-09 11:59:00,
2013-08-09 07:00:00,55.3,53.9,29.86,SW,233,0.0,0.0,95,0.00,,SKC,0.00,VWS V14.01,2013-08-09 12:00:00,
2013-08-09 07:04:00,55.4,54.0,29.88,South,179,0.0,0.0,95,0.00,,SKC,0.00,VWS V14.01,2013-08-09 12:04:00,
2013-08-09 07:09:00,55.6,54.2,29.88,South,179,0.0,0.0,95,0.00,,SKC,0.00,VWS V14.01,2013-08-09 12:09:00,
2013-08-09 07:14:00,55.8,54.4,29.88,South,179,0.0,0.0,95,0.00,,SKC,0.00,VWS V14.01,2013-08-09 12:14:00,
2013-08-09 07:19:00,55.9,54.5,29.88,South,179,0.0,0.0,95,0.00,,SKC,0.00,VWS V14.01,2013-08-09 12:19:00,
2013-08-09 07:24:00,56.1,54.7,29.88,South,179,0.0,0.0,95,0.00,,SKC,0.00,VWS V14.01,2013-08-09 12:24:00,
2013-08-09 07:29:00,56.3,54.9,29.88,South,179,0.0,0.0,95,0.00,,SKC,0.00,VWS V14.01,2013-08-09 12:29:00,
2013-08-09 07:30:00,54.9,53.5,29.87,SSE,163,0.0,0.0,95,0.00,,SKC,0.00,VWS V14.01,2013-08-09 12:30:00,
2013-08-09 07:34:00,56.5,55.1,29.88,South,179,0.0,0.0,95,0.00,,SKC,0.00,VWS V14.01,2013-08-09 12:34:00,
2013-08-09 07:39:00,56.7,55.3,29.87,South,179,0.0,0.0,95,0.00,,SKC,0.00,VWS V14.01,2013-08-09 12:39:00,
2013-08-09 07:44:00,56.9,55.2,29.88,South,179,0.0,0.0,94,0.00,,SKC,0.00,VWS V14.01,2013-08-09 12:44:00,
2013-08-09 07:49:00,57.1,55.4,29.88,South,179,0.0,0.0,94,0.00,,SKC,0.00,VWS V14.01,2013-08-09 12:49:00,
2013-08-09 07:54:00,57.4,55.7,29.88,South,179,0.0,0.0,94,0.00,,SKC,0.00,VWS V14.01,2013-08-09 12:54:00,
2013-08-09 07:59:00,57.7,56.0,29.88,South,179,0.0,0.0,94,0.00,,SKC,0.00,VWS V14.01,2013-08-09 12:59:00,
2013-08-09 08:00:00,55.4,54.0,29.87,South,179,0.0,0.0,95,0.00,,SKC,0.00,VWS V14.01,2013-08-09 13:00:00,
2013-08-09 08:04:00,58.0,56.3,29.88,South,179,0.0,0.0,94,0.00,,SKC,0.00,VWS V14.01,2013-08-09 13:04:00,
2013-08-09 08:09:00,58.4,56.4,29.89,South,179,0.0,0.0,93,0.00,,SKC,0.00,VWS V14.01,2013-08-09 13:09:00,
2013-08-09 08:14:00,58.7,56.7,29.89,South,179,0.0,0.0,93,0.00,,SKC,0.00,VWS V14.01,2013-08-09 13:14:00,
2013-08-09 08:19:00,59.0,56.7,29.89,South,180,0.0,0.0,92,0.00,,SKC,0.00,VWS V14.01,2013-08-09 13:19:00,
2013-08-09 08:24:00,59.0,56.7,29.89,South,180,0.0,0.0,92,0.00,,SKC,0.00,VWS V14.01,2013-08-09 13:24:00,
2013-08-09 08:29:00,59.4,56.8,29.89,South,180,0.0,0.0,91,0.00,,SKC,0.00,VWS V14.01,2013-08-09 13:29:00,
2013-08-09 08:30:00,56.4,55.0,29.88,South,179,0.0,0.0,95,0.00,,SKC,0.00,VWS V14.01,2013-08-09 13:30:00,
2013-08-09 08:34:00,59.8,57.2,29.88,South,180,0.0,0.0,91,0.00,,SKC,0.00,VWS V14.01,2013-08-09 13:34:00,
2013-08-09 08:40:00,60.1,57.5,29.88,South,182,0.0,0.0,91,0.00,,SKC,0.00,VWS V14.01,2013-08-09 13:40:00,
2013-08-09 08:45:00,60.4,57.5,29.89,South,184,0.0,0.0,90,0.00,,SKC,0.00,VWS V14.01,2013-08-09 13:45:00,
2013-08-09 08:50:00,60.8,57.8,29.89,South,184,0.0,0.0,90,0.00,,SKC,0.00,VWS V14.01,2013-08-09 13:50:00,
2013-08-09 08:55:00,61.0,58.0,29.89,South,186,0.0,0.0,90,0.00,,SKC,0.00,VWS V14.01,2013-08-09 13:55:00,
2013-08-09 09:00:00,61.4,58.5,29.89,South,186,0.0,0.0,90,0.00,,SKC,0.00,VWS V14.01,2013-08-09 14:00:00,
2013-08-09 09:05:00,61.8,58.2,29.89,West,269,0.0,0.0,88,0.00,,SKC,0.00,VWS V14.01,2013-08-09 14:05:00,
2013-08-09 09:10:00,62.2,58.3,29.89,West,269,0.0,0.0,87,0.00,,SKC,0.00,VWS V14.01,2013-08-09 14:10:00,
2013-08-09 09:15:00,62.5,58.6,29.89,West,269,0.0,0.0,87,0.00,,SKC,0.00,VWS V14.01,2013-08-09 14:15:00,
2013-08-09 09:20:00,62.9,58.3,29.89,West,269,0.0,0.0,85,0.00,,SKC,0.00,VWS V14.01,2013-08-09 14:20:00,
2013-08-09 09:25:00,63.2,58.3,29.89,West,269,0.0,0.0,84,0.00,,SKC,0.00,VWS V14.01,2013-08-09 14:25:00,
2013-08-09 09:30:00,63.5,58.2,29.89,West,269,0.0,0.0,83,0.00,,SKC,0.00,VWS V14.01,2013-08-09 14:30:00,
2013-08-09 09:35:00,63.9,58.6,29.89,West,269,0.0,0.0,83,0.00,,SKC,0.00,VWS V14.01,2013-08-09 14:35:00,
2013-08-09 09:40:00,64.3,58.3,29.90,West,269,0.0,0.0,81,0.00,,SKC,0.00,VWS V14.01,2013-08-09 14:40:00,
2013-08-09 09:45:00,64.7,57.7,29.90,West,270,0.0,0.0,78,0.00,,SKC,0.00,VWS V14.01,2013-08-09 14:45:00,
2013-08-09 09:50:00,65.0,58.0,29.90,West,270,0.0,0.0,78,0.00,,SKC,0.00,VWS V14.01,2013-08-09 14:50:00,
2013-08-09 09:55:00,65.2,57.5,29.90,West,270,0.0,0.0,76,0.00,,SKC,0.00,VWS V14.01,2013-08-09 14:55:00,
2013-08-09 10:00:00,65.6,57.8,29.89,SW,223,0.0,1.0,76,0.00,,SKC,0.00,VWS V14.01,2013-08-09 15:00:00,
2013-08-09 10:05:00,65.9,58.1,29.90,SW,233,0.0,0.0,76,0.00,,SKC,0.00,VWS V14.01,2013-08-09 15:05:00,
2013-08-09 10:10:00,66.2,57.7,29.90,NW,304,0.0,8.0,74,0.00,,SKC,0.00,VWS V14.01,2013-08-09 15:10:00,
2013-08-09 10:15:00,66.2,57.3,29.90,WNW,288,1.0,8.0,73,0.00,,SKC,0.00,VWS V14.01,2013-08-09 15:15:00,
2013-08-09 10:20:00,66.5,57.6,29.90,WNW,286,0.0,8.0,73,0.00,,SKC,0.00,VWS V14.01,2013-08-09 15:20:00,
2013-08-09 10:25:00,66.6,57.3,29.90,West,279,0.0,8.0,72,0.00,,SKC,0.00,VWS V14.01,2013-08-09 15:25:00,
2013-08-09 10:30:00,66.5,56.8,29.90,WNW,284,1.0,8.0,71,0.00,,SKC,0.00,VWS V14.01,2013-08-09 15:30:00,
2013-08-09 10:35:00,66.8,57.5,29.90,WNW,285,6.0,9.0,72,0.00,,SKC,0.00,VWS V14.01,2013-08-09 15:35:00,
2013-08-09 10:40:00,66.9,56.4,29.90,WNW,288,11.0,11.0,69,0.00,,SKC,0.00,VWS V14.01,2013-08-09 15:40:00,
2013-08-09 10:45:00,67.0,55.7,29.90,WSW,257,4.0,11.0,67,0.00,,SKC,0.00,VWS V14.01,2013-08-09 15:45:00,
2013-08-09 10:50:00,67.5,56.2,29.91,WNW,301,2.0,11.0,67,0.00,,SKC,0.00,VWS V14.01,2013-08-09 15:50:00,
2013-08-09 10:56:00,67.7,56.4,29.91,NW,304,5.0,11.0,67,0.00,,SKC,0.00,VWS V14.01,2013-08-09 15:56:00,
2013-08-09 11:00:00,65.6,57.8,29.89,SW,223,0.0,1.0,76,0.00,,SKC,0.00,VWS V14.01,2013-08-09 16:00:00,
2013-08-09 11:01:00,67.9,56.5,29.91,West,277,0.0,1.0,67,0.00,,SKC,0.00,VWS V14.01,2013-08-09 16:01:00,
2013-08-09 11:06:00,68.0,55.8,29.90,West,279,1.0,5.0,65,0.00,,SKC,0.00,VWS V14.01,2013-08-09 16:06:00,
2013-08-09 11:11:00,68.0,55.8,29.91,West,268,0.0,9.0,65,0.00,,SKC,0.00,VWS V14.01,2013-08-09 16:11:00,
2013-08-09 11:16:00,67.7,56.0,29.90,West,271,4.0,10.0,66,0.00,,SKC,0.00,VWS V14.01,2013-08-09 16:16:00,
2013-08-09 11:21:00,67.5,55.3,29.91,NW,312,1.0,11.0,65,0.00,,SKC,0.00,VWS V14.01,2013-08-09 16:21:00,
2013-08-09 11:26:00,67.8,55.2,29.91,West,264,4.0,11.0,64,0.00,,SKC,0.00,VWS V14.01,2013-08-09 16:26:00,
2013-08-09 11:30:00,66.5,56.8,29.90,WNW,284,0.0,8.0,71,0.00,,SKC,0.00,VWS V14.01,2013-08-09 16:30:00,
2013-08-09 11:31:00,68.3,56.5,29.91,West,269,4.0,4.0,66,0.00,,SKC,0.00,VWS V14.01,2013-08-09 16:31:00,
2013-08-09 11:36:00,68.6,56.0,29.91,WSW,242,3.0,10.0,64,0.00,,SKC,0.00,VWS V14.01,2013-08-09 16:36:00,
2013-08-09 11:41:00,69.0,55.5,29.90,West,269,0.0,10.0,62,0.00,,SKC,0.00,VWS V14.01,2013-08-09 16:41:00,
2013-08-09 11:46:00,69.4,56.3,29.90,WNW,283,7.0,10.0,63,0.00,,SKC,0.00,VWS V14.01,2013-08-09 16:46:00,
2013-08-09 11:51:00,69.0,54.5,29.90,NW,308,6.0,10.0,60,0.00,,SKC,0.00,VWS V14.01,2013-08-09 16:51:00,
2013-08-09 11:56:00,69.0,55.0,29.90,West,277,8.0,10.0,61,0.00,,SKC,0.00,VWS V14.01,2013-08-09 16:56:00,
2013-08-09 12:00:00,67.9,56.5,29.91,West,277,1.0,11.0,67,0.00,,SKC,0.00,VWS V14.01,2013-08-09 17:00:00,
2013-08-09 12:01:00,69.3,55.3,29.90,West,275,0.0,4.0,61,0.00,,SKC,0.00,VWS V14.01,2013-08-09 17:01:00,
2013-08-09 12:06:00,69.7,55.7,29.90,West,273,1.0,4.0,61,0.00,,SKC,0.00,VWS V14.01,2013-08-09 17:06:00,
2013-08-09 12:11:00,70.0,56.0,29.90,NW,323,0.0,10.0,61,0.00,,SKC,0.00,VWS V14.01,2013-08-09 17:11:00,
2013-08-09 12:16:00,70.3,55.3,29.90,WNW,282,0.0,10.0,59,0.00,,SKC,0.00,VWS V14.01,2013-08-09 17:16:00,
2013-08-09 12:22:00,70.7,54.7,29.90,West,261,5.0,10.0,57,0.00,,SKC,0.00,VWS V14.01,2013-08-09 17:22:00,
2013-08-09 12:27:00,71.0,54.5,29.89,SW,231,4.0,12.0,56,0.00,,SKC,0.00,VWS V14.01,2013-08-09 17:27:00,
2013-08-09 12:30:00,68.3,56.5,29.91,West,268,0.0,12.0,66,0.00,,SKC,0.00,VWS V14.01,2013-08-09 17:30:00,
2013-08-09 12:32:00,71.3,55.3,29.89,West,259,5.0,8.0,57,0.00,,SKC,0.00,VWS V14.01,2013-08-09 17:32:00,
2013-08-09 12:37:00,71.9,55.4,29.89,West,261,5.0,9.0,56,0.00,,SKC,0.00,VWS V14.01,2013-08-09 17:37:00,
2013-08-09 12:42:00,72.1,53.5,29.89,WNW,289,1.0,9.0,52,0.00,,SKC,0.00,VWS V14.01,2013-08-09 17:42:00,
2013-08-09 12:47:00,72.1,54.6,29.89,West,259,10.0,10.0,54,0.00,,SKC,0.00,VWS V14.01,2013-08-09 17:47:00,
2013-08-09 12:52:00,72.5,53.9,29.89,West,281,0.0,10.0,52,0.00,,SKC,0.00,VWS V14.01,2013-08-09 17:52:00,
2013-08-09 12:57:00,72.8,54.2,29.89,West,269,4.0,10.0,52,0.00,,SKC,0.00,VWS V14.01,2013-08-09 17:57:00,
2013-08-09 13:00:00,69.2,55.2,29.90,West,275,4.0,10.0,61,0.00,,SKC,0.00,VWS V14.01,2013-08-09 18:00:00,
2013-08-09 13:02:00,73.1,53.9,29.88,WSW,254,2.0,5.0,51,0.00,,SKC,0.00,VWS V14.01,2013-08-09 18:02:00,
2013-08-09 13:07:00,73.2,55.1,29.88,NW,315,0.0,7.0,53,0.00,,SKC,0.00,VWS V14.01,2013-08-09 18:07:00,
2013-08-09 13:12:00,73.6,54.9,29.88,NW,314,1.0,7.0,52,0.00,,SKC,0.00,VWS V14.01,2013-08-09 18:12:00,
2013-08-09 13:17:00,73.9,56.2,29.88,WNW,292,1.0,7.0,54,0.00,,SKC,0.00,VWS V14.01,2013-08-09 18:17:00,
2013-08-09 13:22:00,74.0,55.8,29.88,WNW,288,1.0,9.0,53,0.00,,SKC,0.00,VWS V14.01,2013-08-09 18:22:00,
2013-08-09 13:28:00,74.2,54.9,29.88,WNW,284,4.0,9.0,51,0.00,,SKC,0.00,VWS V14.01,2013-08-09 18:28:00,
2013-08-09 13:30:00,71.3,54.8,29.89,WSW,246,1.0,12.0,56,0.00,,SKC,0.00,VWS V14.01,2013-08-09 18:30:00,
2013-08-09 13:33:00,74.4,55.7,29.88,WNW,299,7.0,7.0,52,0.00,,SKC,0.00,VWS V14.01,2013-08-09 18:33:00,
2013-08-09 13:38:00,74.5,54.7,29.88,WSW,238,7.0,10.0,50,0.00,,SKC,0.00,VWS V14.01,2013-08-09 18:38:00,
2013-08-09 13:43:00,74.2,55.5,29.88,West,273,0.0,10.0,52,0.00,,SKC,0.00,VWS V14.01,2013-08-09 18:43:00,
2013-08-09 13:48:00,73.9,55.2,29.88,West,281,0.0,10.0,52,0.00,,SKC,0.00,VWS V14.01,2013-08-09 18:48:00,
2013-08-09 13:53:00,73.8,56.1,29.88,NW,311,4.0,14.0,54,0.00,,SKC,0.00,VWS V14.01,2013-08-09 18:53:00,
2013-08-09 13:58:00,73.9,55.2,29.88,West,260,4.0,14.0,52,0.00,,SKC,0.00,VWS V14.01,2013-08-09 18:58:00,
2013-08-09 14:00:00,73.0,54.9,29.88,WSW,253,4.0,10.0,53,0.00,,SKC,0.00,VWS V14.01,2013-08-09 19:00:00,
2013-08-09 14:03:00,74.2,55.5,29.89,West,276,0.0,8.0,52,0.00,,SKC,0.00,VWS V14.01,2013-08-09 19:03:00,
2013-08-09 14:08:00,74.5,55.7,29.88,West,275,5.0,8.0,52,0.00,,SKC,0.00,VWS V14.01,2013-08-09 19:08:00,
2013-08-09 14:13:00,74.1,55.4,29.88,WSW,249,4.0,11.0,52,0.00,,SKC,0.00,VWS V14.01,2013-08-09 19:13:00,
2013-08-09 14:18:00,74.2,55.5,29.88,West,265,1.0,11.0,52,0.00,,SKC,0.00,VWS V14.01,2013-08-09 19:18:00,
2013-08-09 14:23:00,74.3,55.6,29.88,West,270,0.0,11.0,52,0.00,,SKC,0.00,VWS V14.01,2013-08-09 19:23:00,
2013-08-09 14:28:00,74.8,56.5,29.88,West,263,0.0,11.0,53,0.00,,SKC,0.00,VWS V14.01,2013-08-09 19:28:00,
2013-08-09 14:30:00,74.4,56.2,29.88,West,260,0.0,9.0,53,0.00,,SKC,0.00,VWS V14.01,2013-08-09 19:30:00,
2013-08-09 14:33:00,75.5,57.7,29.88,West,264,0.0,6.0,54,0.00,,SKC,0.00,VWS V14.01,2013-08-09 19:33:00,
2013-08-09 14:38:00,75.1,55.8,29.88,West,271,2.0,6.0,51,0.00,,SKC,0.00,VWS V14.01,2013-08-09 19:38:00,
2013-08-09 14:43:00,74.1,55.4,29.88,WNW,296,3.0,6.0,52,0.00,,SKC,0.00,VWS V14.01,2013-08-09 19:43:00,
2013-08-09 14:48:00,73.2,55.1,29.88,West,270,1.0,7.0,53,0.00,,SKC,0.00,VWS V14.01,2013-08-09 19:48:00,
2013-08-09 14:53:00,72.1,54.6,29.88,NW,313,0.0,7.0,54,0.00,,SKC,0.00,VWS V14.01,2013-08-09 19:53:00,
2013-08-09 14:58:00,71.9,55.4,29.88,WNW,298,2.0,7.0,56,0.00,,SKC,0.00,VWS V14.01,2013-08-09 19:58:00,
2013-08-09 15:00:00,73.9,55.2,29.88,West,263,3.0,14.0,52,0.00,,SKC,0.00,VWS V14.01,2013-08-09 20:00:00,
2013-08-09 15:03:00,71.9,54.9,29.88,West,269,4.0,12.0,55,0.00,,SKC,0.00,VWS V14.01,2013-08-09 20:03:00,
2013-08-09 15:08:00,71.8,54.3,29.89,WSW,241,6.0,12.0,54,0.00,,SKC,0.00,VWS V14.01,2013-08-09 20:08:00,
2013-08-09 15:13:00,71.9,55.4,29.89,WSW,248,1.0,12.0,56,0.00,,SKC,0.00,VWS V14.01,2013-08-09 20:13:00,
2013-08-09 15:18:00,72.4,55.3,29.88,West,279,0.0,12.0,55,0.00,,SKC,0.00,VWS V14.01,2013-08-09 20:18:00,
2013-08-09 15:23:00,72.5,55.4,29.89,NW,319,1.0,12.0,55,0.00,,SKC,0.00,VWS V14.01,2013-08-09 20:23:00,
2013-08-09 15:28:00,72.5,55.4,29.89,NW,315,1.0,12.0,55,0.00,,SKC,0.00,VWS V14.01,2013-08-09 20:28:00,
2013-08-09 15:30:00,75.3,57.5,29.88,West,264,1.0,11.0,54,0.00,,SKC,0.00,VWS V14.01,2013-08-09 20:30:00,
2013-08-09 15:34:00,72.2,55.7,29.89,NW,319,4.0,6.0,56,0.00,,SKC,0.00,VWS V14.01,2013-08-09 20:34:00,
2013-08-09 15:39:00,71.9,55.9,29.89,WSW,251,0.0,8.0,57,0.00,,SKC,0.00,VWS V14.01,2013-08-09 20:39:00,
2013-08-09 15:44:00,72.2,56.1,29.89,NNW,345,1.0,8.0,57,0.00,,SKC,0.00,VWS V14.01,2013-08-09 20:44:00,
2013-08-09 15:49:00,72.2,55.7,29.89,WNW,283,0.0,8.0,56,0.00,,SKC,0.00,VWS V14.01,2013-08-09 20:49:00,
2013-08-09 15:54:00,72.3,56.7,29.89,WSW,254,0.0,8.0,58,0.00,,SKC,0.00,VWS V14.01,2013-08-09 20:54:00,
2013-08-09 15:59:00,72.2,55.7,29.89,WSW,257,0.0,8.0,56,0.00,,SKC,0.00,VWS V14.01,2013-08-09 20:59:00,
2013-08-09 16:00:00,72.0,56.0,29.88,WNW,290,1.0,7.0,57,0.00,,SKC,0.00,VWS V14.01,2013-08-09 21:00:00,
2013-08-09 16:04:00,72.0,55.5,29.89,WSW,257,0.0,2.0,56,0.00,,SKC,0.00,VWS V14.01,2013-08-09 21:04:00,
2013-08-09 16:09:00,71.7,56.2,29.89,WSW,254,0.0,5.0,58,0.00,,SKC,0.00,VWS V14.01,2013-08-09 21:09:00,
2013-08-09 16:14:00,71.6,55.1,29.89,West,262,5.0,6.0,56,0.00,,SKC,0.00,VWS V14.01,2013-08-09 21:14:00,
2013-08-09 16:19:00,71.5,55.5,29.89,West,277,0.0,6.0,57,0.00,,SKC,0.00,VWS V14.01,2013-08-09 21:19:00,
2013-08-09 16:24:00,71.4,55.9,29.90,West,281,0.0,6.0,58,0.00,,SKC,0.00,VWS V14.01,2013-08-09 21:24:00,
2013-08-09 16:29:00,71.3,55.8,29.90,West,264,0.0,6.0,58,0.00,,SKC,0.00,VWS V14.01,2013-08-09 21:29:00,
2013-08-09 16:30:00,72.4,54.3,29.89,NNE,33,0.0,12.0,53,0.00,,SKC,0.00,VWS V14.01,2013-08-09 21:30:00,
2013-08-09 16:34:00,71.1,56.5,29.90,West,264,0.0,5.0,60,0.00,,SKC,0.00,VWS V14.01,2013-08-09 21:34:00,
2013-08-09 16:39:00,71.1,57.0,29.90,West,265,0.0,5.0,61,0.00,,SKC,0.00,VWS V14.01,2013-08-09 21:39:00,
2013-08-09 16:44:00,71.2,55.7,29.90,West,266,0.0,5.0,58,0.00,,SKC,0.00,VWS V14.01,2013-08-09 21:44:00,
2013-08-09 16:49:00,71.3,56.2,29.90,West,266,0.0,5.0,59,0.00,,SKC,0.00,VWS V14.01,2013-08-09 21:49:00,
2013-08-09 16:54:00,71.3,56.7,29.90,West,266,0.0,5.0,60,0.00,,SKC,0.00,VWS V14.01,2013-08-09 21:54:00,
2013-08-09 16:59:00,71.3,57.2,29.90,West,277,2.0,6.0,61,0.00,,SKC,0.00,VWS V14.01,2013-08-09 21:59:00,
2013-08-09 17:00:00,72.1,56.0,29.89,WSW,257,0.0,8.0,57,0.00,,SKC,0.00,VWS V14.01,2013-08-09 22:00:00,
2013-08-09 17:04:00,71.3,56.2,29.90,West,268,0.0,4.0,59,0.00,,SKC,0.00,VWS V14.01,2013-08-09 22:04:00,
2013-08-09 17:09:00,71.2,56.2,29.90,West,277,0.0,4.0,59,0.00,,SKC,0.00,VWS V14.01,2013-08-09 22:09:00,
2013-08-09 17:15:00,70.9,55.4,29.90,West,279,0.0,4.0,58,0.00,,SKC,0.00,VWS V14.01,2013-08-09 22:15:00,
2013-08-09 17:20:00,70.5,56.0,29.90,West,280,0.0,4.0,60,0.00,,SKC,0.00,VWS V14.01,2013-08-09 22:20:00,
2013-08-09 17:25:00,70.2,56.1,29.91,WNW,284,0.0,4.0,61,0.00,,SKC,0.00,VWS V14.01,2013-08-09 22:25:00,
2013-08-09 17:30:00,70.0,56.0,29.91,NW,304,0.0,4.0,61,0.00,,SKC,0.00,VWS V14.01,2013-08-09 22:30:00,
2013-08-09 17:35:00,69.9,55.8,29.91,NW,304,0.0,2.0,61,0.00,,SKC,0.00,VWS V14.01,2013-08-09 22:35:00,
2013-08-09 17:40:00,69.5,56.4,29.91,NW,304,0.0,2.0,63,0.00,,SKC,0.00,VWS V14.01,2013-08-09 22:40:00,
2013-08-09 17:45:00,69.4,55.8,29.91,WNW,301,2.0,5.0,62,0.00,,SKC,0.00,VWS V14.01,2013-08-09 22:45:00,
2013-08-09 17:50:00,69.3,56.2,29.91,WNW,301,0.0,5.0,63,0.00,,SKC,0.00,VWS V14.01,2013-08-09 22:50:00,
2013-08-09 17:55:00,69.1,56.0,29.91,WNW,300,0.0,5.0,63,0.00,,SKC,0.00,VWS V14.01,2013-08-09 22:55:00,
2013-08-09 18:00:00,68.9,55.8,29.91,WNW,300,0.0,5.0,63,0.00,,SKC,0.00,VWS V14.01,2013-08-09 23:00:00,
2013-08-09 18:05:00,68.7,56.0,29.92,WNW,300,0.0,0.0,64,0.00,,SKC,0.00,VWS V14.01,2013-08-09 23:05:00,
2013-08-09 18:10:00,68.5,56.3,29.92,WNW,300,0.0,0.0,65,0.00,,SKC,0.00,VWS V14.01,2013-08-09 23:10:00,
2013-08-09 18:15:00,68.3,55.7,29.92,WNW,300,0.0,2.0,64,0.00,,SKC,0.00,VWS V14.01,2013-08-09 23:15:00,
2013-08-09 18:20:00,68.1,55.5,29.92,WNW,300,2.0,2.0,64,0.00,,SKC,0.00,VWS V14.01,2013-08-09 23:20:00,
2013-08-09 18:26:00,67.9,55.7,29.92,WNW,300,0.0,2.0,65,0.00,,SKC,0.00,VWS V14.01,2013-08-09 23:26:00,
2013-08-09 18:30:00,70.0,56.0,29.91,NW,304,0.0,4.0,61,0.00,,SKC,0.00,VWS V14.01,2013-08-09 23:30:00,
2013-08-09 18:31:00,67.6,55.8,29.92,WNW,300,0.0,0.0,66,0.00,,SKC,0.00,VWS V14.01,2013-08-09 23:31:00,
2013-08-09 18:36:00,67.5,55.8,29.92,WNW,300,0.0,0.0,66,0.00,,SKC,0.00,VWS V14.01,2013-08-09 23:36:00,
2013-08-09 18:41:00,67.4,55.7,29.92,WNW,300,0.0,0.0,66,0.00,,SKC,0.00,VWS V14.01,2013-08-09 23:41:00,
2013-08-09 18:46:00,67.3,56.4,29.92,WNW,300,0.0,0.0,68,0.00,,SKC,0.00,VWS V14.01,2013-08-09 23:46:00,
2013-08-09 18:51:00,67.3,56.4,29.92,WNW,300,0.0,1.0,68,0.00,,SKC,0.00,VWS V14.01,2013-08-09 23:51:00,
2013-08-09 18:56:00,67.2,56.3,29.92,WNW,300,0.0,1.0,68,0.00,,SKC,0.00,VWS V14.01,2013-08-09 23:56:00,
2013-08-09 19:00:00,68.9,55.8,29.91,WNW,300,0.0,5.0,63,0.00,,SKC,0.00,VWS V14.01,2013-08-10 00:00:00,
2013-08-09 19:01:00,67.1,56.2,29.92,WNW,301,0.0,0.0,68,0.00,,SKC,0.00,VWS V14.01,2013-08-10 00:01:00,
2013-08-09 19:06:00,67.0,56.1,29.92,WNW,301,1.0,2.0,68,0.00,,SKC,0.00,VWS V14.01,2013-08-10 00:06:00,
2013-08-09 19:11:00,66.8,55.9,29.92,WNW,301,0.0,2.0,68,0.00,,SKC,0.00,VWS V14.01,2013-08-10 00:11:00,
2013-08-09 19:16:00,66.7,55.8,29.92,WNW,301,0.0,2.0,68,0.00,,SKC,0.00,VWS V14.01,2013-08-10 00:16:00,
2013-08-09 19:21:00,66.6,55.7,29.92,WNW,301,0.0,2.0,68,0.00,,SKC,0.00,VWS V14.01,2013-08-10 00:21:00,
2013-08-09 19:26:00,66.5,56.0,29.93,WNW,301,0.0,2.0,69,0.00,,SKC,0.00,VWS V14.01,2013-08-10 00:26:00,
2013-08-09 19:30:00,67.7,55.5,29.92,WNW,300,0.0,2.0,65,0.00,,SKC,0.00,VWS V14.01,2013-08-10 00:30:00,
2013-08-09 19:31:00,66.3,55.8,29.93,WNW,301,0.0,0.0,69,0.00,,SKC,0.00,VWS V14.01,2013-08-10 00:31:00,
2013-08-09 19:37:00,66.2,55.7,29.93,WNW,301,0.0,1.0,69,0.00,,SKC,0.00,VWS V14.01,2013-08-10 00:37:00,
2013-08-09 19:42:00,66.1,55.7,29.93,WNW,301,0.0,1.0,69,0.00,,SKC,0.00,VWS V14.01,2013-08-10 00:42:00,
2013-08-09 19:47:00,66.0,55.5,29.93,WNW,301,0.0,1.0,69,0.00,,SKC,0.00,VWS V14.01,2013-08-10 00:47:00,
2013-08-09 19:52:00,65.8,55.8,29.93,WNW,301,0.0,1.0,70,0.00,,SKC,0.00,VWS V14.01,2013-08-10 00:52:00,
2013-08-09 19:57:00,65.7,55.3,29.94,WNW,303,0.0,2.0,69,0.00,,SKC,0.00,VWS V14.01,2013-08-10 00:57:00,
2013-08-09 20:00:00,67.1,56.2,29.92,WNW,301,0.0,1.0,68,0.00,,SKC,0.00,VWS V14.01,2013-08-10 01:00:00,
2013-08-09 20:02:00,65.5,55.1,29.93,NW,305,0.0,0.0,69,0.00,,SKC,0.00,VWS V14.01,2013-08-10 01:02:00,
2013-08-09 20:07:00,65.4,55.4,29.94,NW,305,0.0,1.0,70,0.00,,SKC,0.00,VWS V14.01,2013-08-10 01:07:00,
2013-08-09 20:12:00,65.2,55.2,29.94,NW,305,0.0,1.0,70,0.00,,SKC,0.00,VWS V14.01,2013-08-10 01:12:00,
2013-08-09 20:17:00,65.0,55.0,29.94,NW,305,0.0,1.0,70,0.00,,SKC,0.00,VWS V14.01,2013-08-10 01:17:00,
2013-08-09 20:22:00,64.9,55.3,29.94,NW,305,0.0,1.0,71,0.00,,SKC,0.00,VWS V14.01,2013-08-10 01:22:00,
2013-08-09 20:27:00,64.7,55.1,29.94,NW,305,0.0,1.0,71,0.00,,SKC,0.00,VWS V14.01,2013-08-10 01:27:00,
2013-08-09 20:30:00,66.3,55.8,29.93,WNW,301,0.0,2.0,69,0.00,,SKC,0.00,VWS V14.01,2013-08-10 01:30:00,
2013-08-09 20:32:00,64.5,54.9,29.94,NW,305,0.0,0.0,71,0.00,,SKC,0.00,VWS V14.01,2013-08-10 01:32:00,
2013-08-09 20:37:00,64.3,55.1,29.94,NW,305,0.0,0.0,72,0.00,,SKC,0.00,VWS V14.01,2013-08-10 01:37:00,
2013-08-09 20:42:00,64.2,54.6,29.95,NW,305,0.0,2.0,71,0.00,,SKC,0.00,VWS V14.01,2013-08-10 01:42:00,
2013-08-09 20:47:00,64.0,54.4,29.95,NW,305,0.0,2.0,71,0.00,,SKC,0.00,VWS V14.01,2013-08-10 01:47:00,
2013-08-09 20:52:00,63.9,54.7,29.95,NW,305,0.0,2.0,72,0.00,,SKC,0.00,VWS V14.01,2013-08-10 01:52:00,
2013-08-09 20:57:00,63.7,54.5,29.95,NW,305,0.0,2.0,72,0.00,,SKC,0.00,VWS V14.01,2013-08-10 01:57:00,
2013-08-09 21:00:00,65.5,55.1,29.94,NW,305,0.0,6.0,69,0.00,,SKC,0.00,VWS V14.01,2013-08-10 02:00:00,
2013-08-09 21:02:00,63.6,54.4,29.95,NW,305,0.0,0.0,72,0.00,,SKC,0.00,VWS V14.01,2013-08-10 02:02:00,
2013-08-09 21:07:00,63.5,54.7,29.95,NW,305,0.0,0.0,73,0.00,,SKC,0.00,VWS V14.01,2013-08-10 02:07:00,
2013-08-09 21:12:00,63.3,54.5,29.95,NW,305,0.0,0.0,73,0.00,,SKC,0.00,VWS V14.01,2013-08-10 02:12:00,
2013-08-09 21:17:00,63.2,54.4,29.95,NW,305,0.0,0.0,73,0.00,,SKC,0.00,VWS V14.01,2013-08-10 02:17:00,
2013-08-09 21:22:00,63.1,54.7,29.95,NW,305,0.0,0.0,74,0.00,,SKC,0.00,VWS V14.01,2013-08-10 02:22:00,
2013-08-09 21:27:00,63.0,54.6,29.95,NW,305,0.0,0.0,74,0.00,,SKC,0.00,VWS V14.01,2013-08-10 02:27:00,
2013-08-09 21:30:00,64.5,54.9,29.94,NW,305,0.0,1.0,71,0.00,,SKC,0.00,VWS V14.01,2013-08-10 02:30:00,
2013-08-09 21:32:00,62.9,54.9,29.95,NW,305,0.0,0.0,75,0.00,,SKC,0.00,VWS V14.01,2013-08-10 02:32:00,
2013-08-09 21:37:00,62.7,54.7,29.95,NW,305,0.0,0.0,75,0.00,,SKC,0.00,VWS V14.01,2013-08-10 02:37:00,
2013-08-09 21:42:00,62.7,54.7,29.95,NW,305,0.0,0.0,75,0.00,,SKC,0.00,VWS V14.01,2013-08-10 02:42:00,
2013-08-09 21:47:00,62.6,54.9,29.96,NW,305,0.0,0.0,76,0.00,,SKC,0.00,VWS V14.01,2013-08-10 02:47:00,
2013-08-09 21:52:00,62.5,54.8,29.96,NW,305,0.0,0.0,76,0.00,,SKC,0.00,VWS V14.01,2013-08-10 02:52:00,
2013-08-09 21:57:00,62.5,54.8,29.96,NW,305,0.0,0.0,76,0.00,,SKC,0.00,VWS V14.01,2013-08-10 02:57:00,
2013-08-09 22:00:00,63.6,54.4,29.95,NW,305,0.0,2.0,72,0.00,,SKC,0.00,VWS V14.01,2013-08-10 03:00:00,
2013-08-09 22:02:00,62.4,55.1,29.96,NW,305,0.0,0.0,77,0.00,,SKC,0.00,VWS V14.01,2013-08-10 03:02:00,
2013-08-09 22:08:00,62.3,55.0,29.96,NW,305,0.0,0.0,77,0.00,,SKC,0.00,VWS V14.01,2013-08-10 03:08:00,
2013-08-09 22:13:00,62.1,54.8,29.96,NW,305,0.0,0.0,77,0.00,,SKC,0.00,VWS V14.01,2013-08-10 03:13:00,
2013-08-09 22:18:00,62.0,54.7,29.96,NW,305,0.0,0.0,77,0.00,,SKC,0.00,VWS V14.01,2013-08-10 03:18:00,
2013-08-09 22:23:00,61.9,55.3,29.96,NW,305,0.0,0.0,79,0.00,,SKC,0.00,VWS V14.01,2013-08-10 03:23:00,
2013-08-09 22:28:00,61.8,55.2,29.96,NW,305,0.0,0.0,79,0.00,,SKC,0.00,VWS V14.01,2013-08-10 03:28:00,
2013-08-09 22:30:00,62.9,54.5,29.95,NW,305,0.0,0.0,74,0.00,,SKC,0.00,VWS V14.01,2013-08-10 03:30:00,
2013-08-09 22:33:00,61.8,55.6,29.96,NW,305,0.0,0.0,80,0.00,,SKC,0.00,VWS V14.01,2013-08-10 03:33:00,
2013-08-09 22:38:00,61.8,55.6,29.96,NW,305,0.0,0.0,80,0.00,,SKC,0.00,VWS V14.01,2013-08-10 03:38:00,
2013-08-09 22:43:00,61.6,55.4,29.96,NW,305,0.0,0.0,80,0.00,,SKC,0.00,VWS V14.01,2013-08-10 03:43:00,
2013-08-09 22:48:00,61.6,55.4,29.96,NW,305,0.0,0.0,80,0.00,,SKC,0.00,VWS V14.01,2013-08-10 03:48:00,
2013-08-09 22:53:00,61.5,55.3,29.97,NW,305,0.0,0.0,80,0.00,,SKC,0.00,VWS V14.01,2013-08-10 03:53:00,
2013-08-09 22:58:00,61.5,55.3,29.97,NW,305,0.0,0.0,80,0.00,,SKC,0.00,VWS V14.01,2013-08-10 03:58:00,
2013-08-09 23:00:00,62.5,54.8,29.96,NW,305,0.0,0.0,76,0.00,,SKC,0.00,VWS V14.01,2013-08-10 04:00:00,
2013-08-09 23:01:00,61.5,55.6,29.97,NW,305,0.0,0.0,81,0.00,,SKC,0.00,VWS V14.01,2013-08-10 04:01:00,
2013-08-09 23:02:00,61.5,55.6,29.97,NW,305,0.0,0.0,81,0.00,,SKC,0.00,VWS V14.01,2013-08-10 04:02:00,
2013-08-09 23:05:00,61.4,55.2,29.97,NW,305,0.0,0.0,80,0.00,,SKC,0.00,VWS V14.01,2013-08-10 04:05:00,
2013-08-09 23:08:00,61.4,55.2,29.97,NW,305,0.0,0.0,80,0.00,,SKC,0.00,VWS V14.01,2013-08-10 04:08:00,
2013-08-09 23:13:00,61.4,55.5,29.97,NW,305,0.0,0.0,81,0.00,,SKC,0.00,VWS V14.01,2013-08-10 04:13:00,
2013-08-09 23:18:00,61.4,55.5,29.97,NW,305,0.0,0.0,81,0.00,,SKC,0.00,VWS V14.01,2013-08-10 04:18:00,
2013-08-09 23:23:00,61.4,55.5,29.97,NW,305,0.0,0.0,81,0.00,,SKC,0.00,VWS V14.01,2013-08-10 04:23:00,
2013-08-09 23:28:00,61.4,55.5,29.97,NW,305,0.0,0.0,81,0.00,,SKC,0.00,VWS V14.01,2013-08-10 04:28:00,
2013-08-09 23:30:00,61.8,55.2,29.96,NW,305,0.0,0.0,79,0.00,,SKC,0.00,VWS V14.01,2013-08-10 04:30:00,
2013-08-09 23:33:00,61.3,55.4,29.97,NW,305,0.0,0.0,81,0.00,,SKC,0.00,VWS V14.01,2013-08-10 04:33:00,
2013-08-09 23:38:00,61.3,55.8,29.97,NW,305,0.0,0.0,82,0.00,,SKC,0.00,VWS V14.01,2013-08-10 04:38:00,
2013-08-09 23:43:00,61.2,55.7,29.97,NW,305,0.0,3.0,82,0.00,,SKC,0.00,VWS V14.01,2013-08-10 04:43:00,
2013-08-09 23:48:00,61.2,55.7,29.97,NW,305,0.0,3.0,82,0.00,,SKC,0.00,VWS V14.01,2013-08-10 04:48:00,
2013-08-09 23:53:00,61.2,56.0,29.97,NW,305,0.0,3.0,83,0.00,,SKC,0.00,VWS V14.01,2013-08-10 04:53:00,
2013-08-09 23:58:00,61.1,55.6,29.97,NW,305,0.0,3.0,82,0.00,,SKC,0.00,VWS V14.01,2013-08-10 04:58:00,